createdAt,value
2023-03-14T00:01:14.252Z,2.67
2023-03-14T00:03:42.597Z,2.40
2023-03-14T00:06:13.156Z,2.92
2023-03-14T00:08:44.358Z,2.45
2023-03-14T00:11:13.835Z,2.85
2023-03-14T00:13:42.110Z,2.72
2023-03-14T00:16:12.565Z,2.95
2023-03-14T00:18:41.712Z,2.00
2023-03-14T00:21:13.265Z,2.97
2023-03-14T00:23:43.692Z,2.83
2023-03-14T00:26:13.241Z,3.05
2023-03-14T00:28:41.870Z,2.78
2023-03-14T00:31:12.382Z,2.60
2023-03-14T00:33:40.952Z,2.90
2023-03-14T00:36:13.753Z,2.67
2023-03-14T00:38:43.377Z,2.63
2023-03-14T00:41:14.022Z,2.30
2023-03-14T00:43:42.417Z,2.53
2023-03-14T00:46:11.222Z,2.78
2023-03-14T00:48:40.179Z,2.17
2023-03-14T00:51:10.414Z,2.83
2023-03-14T00:53:41.508Z,3.08
2023-03-14T00:56:12.583Z,2.67
2023-03-14T00:58:41.309Z,3.38
2023-03-14T01:01:11.786Z,2.42
2023-03-14T01:03:40.193Z,3.38
2023-03-14T01:06:13.816Z,2.88
2023-03-14T01:08:43.803Z,2.97
2023-03-14T01:11:18.062Z,2.85
2023-03-14T01:13:46.655Z,3.00
2023-03-14T01:16:16.051Z,2.53
2023-03-14T01:18:45.776Z,2.28
2023-03-14T01:21:16.482Z,2.65
2023-03-14T01:23:47.524Z,2.47
2023-03-14T01:26:20.107Z,2.10
2023-03-14T01:28:49.636Z,2.83
2023-03-14T01:31:18.348Z,3.03
2023-03-14T01:33:47.301Z,2.60
2023-03-14T01:36:16.425Z,2.53
2023-03-14T01:38:46.747Z,2.28
2023-03-14T01:41:17.987Z,2.22
2023-03-14T01:43:46.524Z,3.03
2023-03-14T01:46:27.990Z,2.63
2023-03-14T01:49:01.409Z,2.90
2023-03-14T01:51:33.119Z,2.47
2023-03-14T01:54:09.294Z,3.65
2023-03-14T01:56:39.301Z,3.38
2023-03-14T01:59:10.353Z,3.47
2023-03-14T02:01:39.117Z,3.20
2023-03-14T02:04:10.043Z,2.30
2023-03-14T02:06:47.346Z,3.15
2023-03-14T02:09:17.773Z,2.67
2023-03-14T02:11:46.736Z,2.55
2023-03-14T02:14:27.240Z,3.28
2023-03-14T02:16:56.218Z,3.55
2023-03-14T02:19:37.562Z,3.17
2023-03-14T02:22:11.219Z,3.05
2023-03-14T02:24:49.727Z,3.22
2023-03-14T02:27:20.663Z,2.53
2023-03-14T02:29:53.777Z,3.53
2023-03-14T02:32:23.386Z,2.83
2023-03-14T02:34:55.048Z,3.38
2023-03-14T02:37:27.810Z,2.65
2023-03-14T02:39:56.397Z,3.08
2023-03-14T02:42:26.359Z,2.35
2023-03-14T02:44:57.266Z,2.85
2023-03-14T02:47:29.754Z,3.20
2023-03-14T02:50:03.348Z,2.80
2023-03-14T02:52:31.714Z,2.60
2023-03-14T02:55:00.206Z,2.67
2023-03-14T02:57:30.108Z,2.33
2023-03-14T03:00:01.058Z,2.15
2023-03-14T03:02:29.704Z,2.42
2023-03-14T03:04:58.101Z,2.33
2023-03-14T03:07:26.519Z,2.90
2023-03-14T03:09:54.963Z,2.83
2023-03-14T03:12:23.248Z,2.72
2023-03-14T03:14:52.981Z,2.55
2023-03-14T03:17:21.364Z,2.85
2023-03-14T03:19:49.773Z,2.30
2023-03-14T03:22:18.091Z,2.80
2023-03-14T03:24:46.693Z,2.45
2023-03-14T03:27:14.998Z,2.13
2023-03-14T03:29:43.300Z,2.45
2023-03-14T03:32:13.124Z,2.28
2023-03-14T03:34:41.578Z,2.83
2023-03-14T03:37:09.964Z,3.30
2023-03-14T03:39:38.103Z,3.05
2023-03-14T03:42:06.502Z,2.28
2023-03-14T03:44:34.758Z,2.78
2023-03-14T03:47:02.959Z,3.30
2023-03-14T03:49:33.695Z,2.30
2023-03-14T03:52:02.156Z,3.25
2023-03-14T03:54:31.186Z,3.10
2023-03-14T03:56:59.664Z,2.80
2023-03-14T03:59:28.128Z,3.22
2023-03-14T04:01:56.510Z,3.25
2023-03-14T04:04:25.122Z,3.20
2023-03-14T04:06:55.073Z,3.33
2023-03-14T04:09:23.417Z,4.00
2023-03-14T04:11:51.637Z,2.97
2023-03-14T04:14:19.971Z,3.33
2023-03-14T04:16:48.265Z,3.88
2023-03-14T04:19:16.608Z,3.08
2023-03-14T04:21:48.076Z,3.53
2023-03-14T04:24:17.991Z,3.08
2023-03-14T04:26:46.493Z,3.28
2023-03-14T04:29:14.936Z,4.18
2023-03-14T04:31:43.382Z,2.70
2023-03-14T04:34:11.817Z,3.65
2023-03-14T04:36:40.434Z,2.72
2023-03-14T04:39:09.217Z,2.85
2023-03-14T04:41:38.968Z,2.72
2023-03-14T04:44:07.372Z,2.83
2023-03-14T04:46:35.678Z,2.60
2023-03-14T04:49:04.015Z,2.75
2023-03-14T04:51:32.249Z,2.92
2023-03-14T04:54:00.463Z,2.95
2023-03-14T04:56:31.478Z,2.58
2023-03-14T04:59:01.248Z,2.35
2023-03-14T05:01:29.499Z,2.22
2023-03-14T05:03:57.954Z,2.90
2023-03-14T05:06:26.299Z,2.38
2023-03-14T05:08:54.574Z,2.65
2023-03-14T05:11:22.961Z,2.75
2023-03-14T05:13:51.361Z,2.30
2023-03-14T05:16:21.208Z,3.08
2023-03-14T05:18:49.571Z,3.38
2023-03-14T05:21:17.957Z,3.15
2023-03-14T05:23:46.131Z,2.58
2023-03-14T05:26:14.425Z,3.03
2023-03-14T05:28:42.757Z,2.67
2023-03-14T05:31:11.630Z,2.58
2023-03-14T05:33:41.904Z,3.17
2023-03-14T05:36:11.058Z,2.65
2023-03-14T05:38:39.416Z,2.63
2023-03-14T05:41:08.013Z,2.42
2023-03-14T05:43:36.204Z,3.05
2023-03-14T05:46:04.543Z,3.92
2023-03-14T05:48:33.145Z,3.08
2023-03-14T05:51:03.362Z,2.92
2023-03-14T05:53:31.679Z,3.20
2023-03-14T05:55:59.991Z,3.40
2023-03-14T05:58:28.310Z,3.53
2023-03-14T06:00:56.781Z,3.03
2023-03-14T06:03:25.252Z,2.70
2023-03-14T06:05:53.624Z,2.78
2023-03-14T06:08:23.350Z,3.17
2023-03-14T06:10:51.627Z,2.92
2023-03-14T06:13:20.351Z,2.55
2023-03-14T06:15:51.713Z,2.88
2023-03-14T06:18:20.117Z,2.80
2023-03-14T06:20:48.549Z,2.60
2023-03-14T06:23:17.744Z,2.70
2023-03-14T06:25:47.746Z,2.60
2023-03-14T06:28:16.341Z,2.95
2023-03-14T06:30:44.668Z,3.25
2023-03-14T06:33:13.012Z,3.08
2023-03-14T06:35:41.322Z,3.33
2023-03-14T06:38:09.712Z,2.83
2023-03-14T06:40:38.124Z,3.15
2023-03-14T06:43:07.997Z,3.60
2023-03-14T06:45:36.183Z,3.97
2023-03-14T06:48:04.842Z,3.65
2023-03-14T06:50:33.216Z,2.85
2023-03-14T06:53:01.726Z,3.20
2023-03-14T06:55:30.177Z,3.72
2023-03-14T06:57:58.422Z,4.00
2023-03-14T07:00:28.551Z,4.35
2023-03-14T07:02:59.597Z,4.28
2023-03-14T07:05:28.145Z,3.45
2023-03-14T07:07:56.569Z,3.42
2023-03-14T07:10:24.942Z,3.50
2023-03-14T07:12:55.969Z,3.30
2023-03-14T07:15:24.234Z,3.72
2023-03-14T07:17:53.953Z,3.95
2023-03-14T07:20:22.211Z,4.00
2023-03-14T07:22:51.210Z,4.97
2023-03-14T07:25:22.409Z,4.50
2023-03-14T07:27:50.946Z,4.78
2023-03-14T07:30:21.828Z,4.15
2023-03-14T07:32:51.534Z,3.97
2023-03-14T07:35:21.991Z,4.15
2023-03-14T07:37:50.338Z,4.22
2023-03-14T07:40:18.822Z,3.97
2023-03-14T07:42:47.675Z,3.80
2023-03-14T07:45:16.158Z,3.78
2023-03-14T07:47:44.431Z,3.85
2023-03-14T07:50:13.469Z,1.80
2023-03-14T07:52:43.281Z,1.65
2023-03-14T07:55:14.884Z,1.65
2023-03-14T07:57:43.148Z,1.42
2023-03-14T08:00:15.867Z,1.52
2023-03-14T08:02:45.077Z,1.05
2023-03-14T08:05:13.586Z,1.40
2023-03-14T08:07:43.257Z,1.45
2023-03-14T08:10:14.492Z,1.15
2023-03-14T08:12:44.058Z,1.80
2023-03-14T08:15:13.167Z,1.42
2023-03-14T08:17:41.572Z,1.70
2023-03-14T08:20:12.707Z,1.02
2023-03-14T08:22:42.905Z,1.15
2023-03-14T08:25:11.649Z,0.55
2023-03-14T08:27:40.531Z,0.73
2023-03-14T08:30:12.511Z,1.10
2023-03-14T08:32:41.195Z,0.70
2023-03-14T08:35:11.337Z,0.60
2023-03-14T08:37:39.736Z,0.60
2023-03-14T08:40:11.220Z,0.60
2023-03-14T08:42:40.162Z,0.70
2023-03-14T08:45:10.339Z,0.80
2023-03-14T08:47:38.874Z,0.88
2023-03-14T08:50:13.103Z,1.10
2023-03-14T08:52:44.438Z,1.30
2023-03-14T08:55:14.921Z,1.15
2023-03-14T08:57:43.517Z,0.90
2023-03-14T09:00:15.456Z,1.02
2023-03-14T09:02:44.262Z,0.77
2023-03-14T09:05:13.156Z,1.00
2023-03-14T09:07:42.603Z,0.70
2023-03-14T09:10:14.090Z,0.88
2023-03-14T09:12:42.480Z,0.90
2023-03-14T09:15:12.044Z,1.33
2023-03-14T09:17:43.275Z,1.20
2023-03-14T09:20:12.824Z,1.67
2023-03-14T09:22:41.126Z,1.30
2023-03-14T09:25:10.922Z,1.17
2023-03-14T09:27:40.663Z,1.35
2023-03-14T09:30:12.695Z,1.70
2023-03-14T09:32:40.997Z,1.75
2023-03-14T09:35:10.921Z,2.30
2023-03-14T09:37:39.270Z,3.17
2023-03-14T09:40:12.071Z,0.95
2023-03-14T09:42:43.009Z,0.95
2023-03-14T09:45:19.244Z,1.70
2023-03-14T09:47:58.524Z,1.98
2023-03-14T09:50:32.238Z,2.50
2023-03-14T09:53:06.268Z,2.17
2023-03-14T09:55:36.851Z,2.40
2023-03-14T09:58:13.904Z,2.20
2023-03-14T10:00:45.427Z,2.58
2023-03-14T10:03:27.122Z,2.22
2023-03-14T10:05:57.399Z,2.53
2023-03-14T10:08:25.758Z,1.58
2023-03-14T10:10:55.855Z,2.03
2023-03-14T10:13:29.059Z,1.95
2023-03-14T10:16:01.002Z,1.10
2023-03-14T10:18:31.821Z,1.65
2023-03-14T10:21:19.269Z,1.10
2023-03-14T10:23:49.730Z,1.35
2023-03-14T10:26:20.267Z,1.00
2023-03-14T10:28:53.765Z,0.82
2023-03-14T10:31:27.471Z,1.83
2023-03-14T10:34:04.167Z,2.00
2023-03-14T10:36:34.667Z,1.48
2023-03-14T10:39:25.745Z,0.80
2023-03-14T10:41:56.861Z,1.08
2023-03-14T10:44:28.191Z,1.13
2023-03-14T10:47:02.539Z,1.00
2023-03-14T10:49:32.876Z,0.63
2023-03-14T10:52:14.749Z,0.75
2023-03-14T10:54:45.906Z,0.88
2023-03-14T10:57:14.274Z,0.77
2023-03-14T10:59:45.310Z,0.60
2023-03-14T11:02:41.651Z,0.65
2023-03-14T11:05:28.074Z,0.60
2023-03-14T11:08:02.385Z,0.70
2023-03-14T11:10:34.965Z,0.57
2023-03-14T11:13:18.234Z,0.75
2023-03-14T11:15:56.310Z,0.50
2023-03-14T11:18:47.611Z,0.47
2023-03-14T11:21:20.997Z,0.40
2023-03-14T11:23:59.909Z,0.75
2023-03-14T11:26:34.533Z,0.40
2023-03-14T11:29:19.627Z,0.60
2023-03-14T11:31:49.961Z,0.73
2023-03-14T11:34:23.024Z,0.50
2023-03-14T11:36:55.321Z,0.40
2023-03-14T11:39:24.148Z,0.60
2023-03-14T11:41:54.457Z,0.20
2023-03-14T11:44:28.370Z,0.47
2023-03-14T11:47:04.988Z,0.50
2023-03-14T11:49:39.940Z,0.65
2023-03-14T11:52:14.398Z,1.08
2023-03-14T11:54:48.217Z,0.70
2023-03-14T11:57:18.404Z,0.70
2023-03-14T11:59:53.855Z,0.88
2023-03-14T12:02:36.053Z,0.82
2023-03-14T12:05:38.448Z,0.80
2023-03-14T12:08:27.503Z,0.77
2023-03-14T12:10:57.987Z,0.80
2023-03-14T12:13:31.241Z,0.70
2023-03-14T12:16:01.807Z,0.95
2023-03-14T12:18:33.716Z,0.60
2023-03-14T12:21:06.003Z,0.50
2023-03-14T12:23:43.711Z,0.65
2023-03-14T12:26:19.045Z,0.90
2023-03-14T12:28:52.659Z,1.10
2023-03-14T12:31:42.734Z,0.70
2023-03-14T12:34:35.411Z,0.77
2023-03-14T12:37:36.012Z,0.65
2023-03-14T12:40:21.185Z,0.80
2023-03-14T12:43:00.349Z,0.63
2023-03-14T12:45:31.486Z,0.90
2023-03-14T12:48:08.875Z,0.80
2023-03-14T12:50:44.035Z,0.60
2023-03-14T12:53:46.498Z,0.43
2023-03-14T12:56:26.267Z,0.80
2023-03-14T12:59:36.717Z,0.60
2023-03-14T13:02:22.060Z,0.70
2023-03-14T13:04:53.814Z,0.63
2023-03-14T13:08:00.936Z,0.50
2023-03-14T13:10:37.171Z,0.77
2023-03-14T13:13:17.840Z,0.70
2023-03-14T13:15:50.942Z,0.60
2023-03-14T13:18:32.427Z,0.40
2023-03-14T13:21:05.210Z,0.73
2023-03-14T13:23:37.720Z,0.63
2023-03-14T13:26:08.516Z,0.40
2023-03-14T13:28:37.594Z,0.40
2023-03-14T13:31:07.390Z,0.40
2023-03-14T13:33:36.043Z,0.38
2023-03-14T13:36:07.136Z,0.60
2023-03-14T13:38:38.744Z,0.90
2023-03-14T13:41:11.747Z,0.45
2023-03-14T13:43:43.402Z,0.50
2023-03-14T13:46:16.944Z,0.75
2023-03-14T13:48:49.160Z,0.50
2023-03-14T13:51:19.986Z,0.50
2023-03-14T13:53:52.167Z,0.90
2023-03-14T13:56:21.672Z,0.22
2023-03-14T13:58:50.660Z,0.50
2023-03-14T14:01:21.127Z,0.65
2023-03-14T14:03:53.258Z,1.08
2023-03-14T14:06:34.397Z,1.17
2023-03-14T14:09:11.502Z,0.73
2023-03-14T14:11:56.437Z,1.15
2023-03-14T14:14:37.035Z,2.42
2023-03-14T14:17:10.262Z,1.80
2023-03-14T14:19:40.882Z,4.82
2023-03-14T14:22:11.526Z,2.70
2023-03-14T14:24:41.942Z,1.85
2023-03-14T14:27:15.517Z,1.77
2023-03-14T14:29:44.339Z,1.20
2023-03-14T14:32:16.296Z,1.48
2023-03-14T14:34:50.767Z,2.05
2023-03-14T14:37:22.943Z,1.13
2023-03-14T14:39:54.660Z,2.80
2023-03-14T14:42:26.528Z,2.10
2023-03-14T14:44:55.393Z,2.38
2023-03-14T14:47:26.224Z,1.92
2023-03-14T14:49:55.827Z,1.17
2023-03-14T14:52:35.202Z,1.25
2023-03-14T14:55:05.266Z,1.42
2023-03-14T14:57:39.008Z,1.80
2023-03-14T15:00:13.350Z,1.80
2023-03-14T15:02:48.072Z,1.15
2023-03-14T15:05:18.564Z,1.40
2023-03-14T15:07:47.392Z,1.50
2023-03-14T15:10:19.517Z,1.70
2023-03-14T15:12:48.483Z,1.58
2023-03-14T15:15:18.341Z,1.10
2023-03-14T15:17:46.861Z,2.50
2023-03-14T15:20:17.032Z,1.45
2023-03-14T15:22:45.259Z,1.17
2023-03-14T15:25:36.842Z,1.42
2023-03-14T15:28:04.736Z,1.65
2023-03-14T15:30:33.266Z,1.30
2023-03-14T15:33:01.611Z,0.82
2023-03-14T15:35:30.257Z,0.95
2023-03-14T15:37:58.446Z,0.80
2023-03-14T15:40:29.521Z,0.88
2023-03-14T15:42:59.658Z,1.02
2023-03-14T15:45:29.482Z,0.82
2023-03-14T15:47:57.813Z,1.15
2023-03-14T15:50:26.935Z,1.17
2023-03-14T15:52:57.523Z,1.10
2023-03-14T15:55:25.739Z,1.70
2023-03-14T15:57:54.522Z,1.05
2023-03-14T16:00:24.538Z,0.60
2023-03-14T16:02:54.344Z,0.90
2023-03-14T16:05:22.830Z,0.98
2023-03-14T16:07:51.335Z,1.55
2023-03-14T16:10:19.699Z,0.85
2023-03-14T16:12:48.016Z,1.13
2023-03-14T16:15:16.239Z,0.88
2023-03-14T16:17:44.962Z,1.60
2023-03-14T16:20:14.843Z,1.20
2023-03-14T16:22:43.336Z,1.27
2023-03-14T16:25:12.507Z,1.60
2023-03-14T16:27:44.136Z,1.52
2023-03-14T16:30:14.818Z,1.40
2023-03-14T16:32:43.164Z,1.98
2023-03-14T16:35:12.131Z,1.48
2023-03-14T16:37:41.797Z,1.35
2023-03-14T16:40:13.509Z,1.40
2023-03-14T16:45:32.959Z,1.92
2023-03-14T16:48:01.631Z,1.70
2023-03-14T16:50:29.876Z,2.22
2023-03-14T16:52:59.728Z,2.50
2023-03-14T16:55:28.040Z,2.25
2023-03-14T16:57:56.618Z,1.73
2023-03-14T17:00:25.424Z,1.98
2023-03-14T17:02:56.792Z,2.20
2023-03-14T17:05:25.119Z,2.40
2023-03-14T17:07:53.699Z,2.67
2023-03-14T17:10:23.494Z,2.03
2023-03-14T17:12:51.852Z,2.35
2023-03-14T17:15:20.312Z,1.83
2023-03-14T17:17:48.661Z,2.22
2023-03-14T17:20:17.602Z,1.77
2023-03-14T17:22:45.808Z,2.22
2023-03-14T17:25:17.096Z,2.72
2023-03-14T17:27:46.966Z,1.80
2023-03-14T17:30:16.005Z,2.53
2023-03-14T17:32:44.412Z,2.17
2023-03-14T17:35:12.953Z,2.13
2023-03-14T17:37:41.568Z,2.70
2023-03-14T17:40:11.089Z,2.35
2023-03-14T17:42:39.441Z,3.13
2023-03-14T17:45:11.615Z,2.67
2023-03-14T17:47:39.882Z,3.90
2023-03-14T17:50:09.198Z,3.78
2023-03-14T17:52:38.037Z,2.88
2023-03-14T17:55:08.203Z,3.72
2023-03-14T17:57:39.660Z,2.92
2023-03-14T18:00:13.298Z,3.15
2023-03-14T18:02:41.982Z,2.78
2023-03-14T18:05:10.817Z,3.00
2023-03-14T18:07:39.807Z,4.60
2023-03-14T18:10:10.054Z,4.53
2023-03-14T18:12:38.452Z,3.42
2023-03-14T18:15:09.575Z,3.58
2023-03-14T18:17:37.872Z,4.35
2023-03-14T18:20:10.563Z,4.03
2023-03-14T18:22:38.817Z,3.28
2023-03-14T18:25:07.744Z,3.67
2023-03-14T18:27:36.003Z,2.65
2023-03-14T18:30:04.557Z,3.63
2023-03-14T18:32:34.298Z,3.20
2023-03-14T18:35:02.575Z,2.67
2023-03-14T18:37:31.790Z,3.50
2023-03-14T18:40:00.003Z,3.72
2023-03-14T18:42:28.230Z,2.60
2023-03-14T18:44:56.717Z,1.92
2023-03-14T18:47:27.102Z,1.20
2023-03-14T18:49:56.932Z,0.85
2023-03-14T18:52:25.280Z,1.15
2023-03-14T18:54:53.613Z,1.60
2023-03-14T18:57:22.125Z,0.45
2023-03-14T18:59:50.424Z,0.88
2023-03-14T19:02:18.964Z,0.60
2023-03-14T19:04:47.117Z,0.90
2023-03-14T19:07:16.791Z,0.52
2023-03-14T19:09:45.330Z,0.70
2023-03-14T19:12:13.696Z,0.82
2023-03-14T19:14:42.022Z,0.57
2023-03-14T19:17:10.232Z,0.50
2023-03-14T19:19:38.547Z,0.63
2023-03-14T19:22:06.817Z,0.77
2023-03-14T19:24:36.631Z,0.45
2023-03-14T19:27:05.112Z,0.50
2023-03-14T19:29:39.430Z,0.60
2023-03-14T19:32:07.775Z,1.02
2023-03-14T19:34:36.283Z,0.80
2023-03-14T19:37:04.676Z,0.63
2023-03-14T19:39:32.929Z,0.75
2023-03-14T19:42:02.856Z,0.93
2023-03-14T19:44:31.333Z,0.60
2023-03-14T19:46:59.657Z,0.90
2023-03-14T19:49:28.433Z,0.88
2023-03-14T19:51:56.986Z,0.70
2023-03-14T19:54:25.152Z,0.40
2023-03-14T19:56:53.537Z,0.85
2023-03-14T19:59:23.175Z,0.70
2023-03-14T20:01:52.689Z,0.55
2023-03-14T20:04:21.088Z,0.65
2023-03-14T20:06:49.669Z,0.50
2023-03-14T20:09:18.020Z,0.60
2023-03-14T20:11:46.536Z,0.82
2023-03-14T20:14:16.446Z,0.70
2023-03-14T20:16:46.265Z,0.80
2023-03-14T20:19:15.464Z,0.75
2023-03-14T20:21:43.950Z,0.73
2023-03-14T20:24:12.183Z,0.63
2023-03-14T20:26:40.868Z,0.82
2023-03-14T20:29:09.280Z,0.73
2023-03-14T20:31:38.150Z,0.77
2023-03-14T20:34:07.862Z,0.73
2023-03-14T20:36:36.362Z,0.70
2023-03-14T20:39:05.655Z,0.80
2023-03-14T20:41:34.110Z,1.17
2023-03-14T20:44:09.348Z,0.50
2023-03-14T20:46:37.885Z,0.57
2023-03-14T20:49:10.749Z,0.90
2023-03-14T20:51:39.014Z,0.77
2023-03-14T20:54:09.135Z,0.88
2023-03-14T20:56:37.502Z,0.82
2023-03-14T20:59:05.658Z,0.70
2023-03-14T21:01:33.958Z,0.50
2023-03-14T21:04:02.552Z,0.70
2023-03-14T21:06:33.627Z,0.88
2023-03-14T21:09:05.517Z,0.50
2023-03-14T21:11:36.455Z,0.60
2023-03-14T21:14:05.040Z,0.80
2023-03-14T21:16:33.427Z,0.77
2023-03-14T21:19:01.765Z,0.70
2023-03-14T21:21:32.697Z,0.82
2023-03-14T21:24:02.740Z,0.50
2023-03-14T21:26:31.778Z,0.95
2023-03-14T21:29:03.085Z,0.65
2023-03-14T21:31:31.808Z,0.55
2023-03-14T21:34:02.173Z,0.70
2023-03-14T21:36:32.171Z,0.55
2023-03-14T21:39:01.788Z,0.68
2023-03-14T21:41:30.129Z,0.82
2023-03-14T21:43:58.454Z,0.70
2023-03-14T21:46:27.066Z,1.23
2023-03-14T21:48:55.417Z,0.40
2023-03-14T21:51:31.364Z,0.95
2023-03-14T21:54:01.156Z,0.80
2023-03-14T21:56:29.383Z,0.85
2023-03-14T21:58:59.296Z,0.77
2023-03-14T22:01:27.509Z,0.65
2023-03-14T22:03:55.869Z,0.90
2023-03-14T22:06:24.286Z,1.00
2023-03-14T22:08:52.742Z,0.88
2023-03-14T22:11:22.530Z,0.60
2023-03-14T22:13:50.817Z,0.85
2023-03-14T22:16:19.205Z,0.50
2023-03-14T22:18:47.464Z,0.52
2023-03-14T22:21:15.924Z,0.80
2023-03-14T22:23:44.141Z,0.75
2023-03-14T22:26:12.374Z,1.05
2023-03-14T22:28:42.096Z,0.70
2023-03-14T22:31:11.095Z,0.70
2023-03-14T22:33:39.559Z,1.20
2023-03-14T22:36:08.625Z,1.02
2023-03-14T22:38:37.017Z,0.82
2023-03-14T22:41:05.740Z,0.60
2023-03-14T22:43:34.021Z,0.63
2023-03-14T22:46:06.461Z,1.30
2023-03-14T22:48:35.259Z,0.88
2023-03-14T22:51:07.757Z,0.70
2023-03-14T22:53:36.344Z,0.90
2023-03-14T22:56:06.573Z,0.90
2023-03-14T22:58:35.460Z,0.50
2023-03-14T23:01:06.344Z,0.75
2023-03-14T23:03:34.583Z,1.08
2023-03-14T23:06:02.752Z,0.65
2023-03-14T23:08:33.208Z,0.68
2023-03-14T23:11:02.693Z,0.57
2023-03-14T23:13:31.802Z,1.25
2023-03-14T23:16:01.296Z,0.68
2023-03-14T23:18:31.017Z,1.45
2023-03-14T23:21:10.334Z,0.47
2023-03-14T23:23:41.463Z,0.70
2023-03-14T23:26:12.258Z,0.70
2023-03-14T23:28:41.611Z,1.05
2023-03-14T23:31:11.001Z,0.80
2023-03-14T23:33:40.762Z,1.23
2023-03-14T23:36:12.637Z,0.95
2023-03-14T23:38:42.440Z,0.65
2023-03-14T23:41:14.553Z,0.85
2023-03-14T23:43:44.328Z,1.05
2023-03-14T23:46:12.703Z,0.70
2023-03-14T23:48:47.227Z,0.77
2023-03-14T23:51:16.926Z,0.90
2023-03-14T23:53:45.876Z,1.15
2023-03-14T23:56:18.307Z,1.00
2023-03-14T23:58:46.691Z,0.73
